createdAt,value
2018-07-04T00:00:47.354Z,21.90
2018-07-04T00:03:40.349Z,21.90
2018-07-04T00:06:37.413Z,21.80
2018-07-04T00:09:32.392Z,21.70
2018-07-04T00:12:30.488Z,21.50
2018-07-04T00:18:29.193Z,21.70
2018-07-04T00:21:23.284Z,21.60
2018-07-04T00:24:15.544Z,21.30
2018-07-04T00:27:10.776Z,21.30
2018-07-04T00:30:06.051Z,21.00
2018-07-04T00:38:20.121Z,21.40
2018-07-04T00:41:06.961Z,21.50
2018-07-04T00:43:53.886Z,21.40
2018-07-04T00:46:44.063Z,21.30
2018-07-04T00:49:31.205Z,21.30
2018-07-04T00:52:17.947Z,21.10
2018-07-04T00:55:04.864Z,21.10
2018-07-04T00:57:51.878Z,21.00
2018-07-04T01:00:38.719Z,21.10
2018-07-04T01:03:25.673Z,20.90
2018-07-04T01:06:12.523Z,20.80
2018-07-04T01:09:00.097Z,20.70
2018-07-04T01:14:28.183Z,20.90
2018-07-04T01:17:15.176Z,21.00
2018-07-04T01:20:01.956Z,20.90
2018-07-04T01:22:48.959Z,20.90
2018-07-04T01:25:35.840Z,20.80
2018-07-04T01:28:26.720Z,20.80
2018-07-04T01:31:13.691Z,20.80
2018-07-04T01:34:01.250Z,20.70
2018-07-04T01:36:48.646Z,20.60
2018-07-04T01:39:36.502Z,20.40
2018-07-04T01:42:23.416Z,20.30
2018-07-04T01:45:10.532Z,20.30
2018-07-04T01:47:57.456Z,20.20
2018-07-04T01:50:44.422Z,20.10
2018-07-04T01:53:31.586Z,20.30
2018-07-04T01:56:18.659Z,20.30
2018-07-04T01:59:05.647Z,20.30
2018-07-04T02:01:52.418Z,20.20
2018-07-04T02:07:20.050Z,20.10
2018-07-04T02:10:07.119Z,20.00
2018-07-04T02:12:54.326Z,19.80
2018-07-04T02:15:41.173Z,20.00
2018-07-04T02:18:28.024Z,20.10
2018-07-04T02:21:14.753Z,20.00
2018-07-04T02:24:01.785Z,19.80
2018-07-04T02:26:48.811Z,19.60
2018-07-04T02:29:35.941Z,19.60
2018-07-04T02:32:26.566Z,19.60
2018-07-04T02:35:13.332Z,19.70
2018-07-04T02:40:52.381Z,19.40
2018-07-04T02:43:39.509Z,19.40
2018-07-04T02:46:31.786Z,19.50
2018-07-04T02:49:19.455Z,19.30
2018-07-04T02:54:47.051Z,19.30
2018-07-04T02:57:37.516Z,19.30
2018-07-04T03:00:24.333Z,19.40
2018-07-04T03:05:51.741Z,19.50
2018-07-04T03:08:38.834Z,19.50
2018-07-04T03:11:25.889Z,19.40
2018-07-04T03:14:12.571Z,19.50
2018-07-04T03:16:59.979Z,19.40
2018-07-04T03:19:47.187Z,19.20
2018-07-04T03:22:33.982Z,19.30
2018-07-04T03:25:21.246Z,19.30
2018-07-04T03:28:08.663Z,19.40
2018-07-04T03:33:36.436Z,19.40
2018-07-04T03:36:23.381Z,19.40
2018-07-04T03:39:10.786Z,19.20
2018-07-04T03:41:58.291Z,19.40
2018-07-04T03:44:45.062Z,19.30
2018-07-04T03:47:32.965Z,19.20
2018-07-04T03:50:20.088Z,19.20
2018-07-04T03:53:07.223Z,19.20
2018-07-04T03:55:54.232Z,19.20
2018-07-04T03:58:41.037Z,19.00
2018-07-04T04:01:29.174Z,18.90
2018-07-04T04:04:16.037Z,18.90
2018-07-04T04:07:03.132Z,18.50
2018-07-04T04:09:50.093Z,18.70
2018-07-04T04:12:36.951Z,19.10
2018-07-04T04:15:24.424Z,19.20
2018-07-04T04:18:11.300Z,19.30
2018-07-04T04:20:58.194Z,19.40
2018-07-04T04:23:45.053Z,19.30
2018-07-04T04:26:34.098Z,19.10
2018-07-04T04:29:21.417Z,19.10
2018-07-04T04:32:08.251Z,19.30
2018-07-04T04:37:47.739Z,19.50
2018-07-04T04:40:34.650Z,19.50
2018-07-04T04:43:21.342Z,19.70
2018-07-04T04:48:59.836Z,19.80
2018-07-04T04:51:46.636Z,19.70
2018-07-04T04:54:33.256Z,20.00
2018-07-04T04:57:23.065Z,20.30
2018-07-04T05:00:09.985Z,20.30
2018-07-04T05:02:56.990Z,20.50
2018-07-04T05:11:29.232Z,21.30
2018-07-04T05:14:16.349Z,21.60
2018-07-04T05:17:04.650Z,21.60
2018-07-04T05:19:51.294Z,21.40
2018-07-04T05:25:31.314Z,22.30
2018-07-04T05:28:18.006Z,22.20
2018-07-04T05:31:04.697Z,22.10
2018-07-04T05:33:51.623Z,22.00
2018-07-04T05:42:18.028Z,21.10
2018-07-04T05:45:05.411Z,20.90
2018-07-04T05:47:53.234Z,20.70
2018-07-04T05:50:40.076Z,20.80
2018-07-04T05:53:26.894Z,21.10
2018-07-04T05:56:13.887Z,21.30
2018-07-04T05:59:00.545Z,21.60
2018-07-04T06:01:47.952Z,21.80
2018-07-04T06:04:34.999Z,22.10
2018-07-04T06:07:21.717Z,21.90
2018-07-04T06:10:08.697Z,22.40
2018-07-04T06:12:55.852Z,22.30
2018-07-04T06:15:42.503Z,22.30
2018-07-04T06:18:30.107Z,22.50
2018-07-04T06:21:18.253Z,22.10
2018-07-04T06:24:04.823Z,22.20
2018-07-04T06:29:32.359Z,22.10
2018-07-04T06:32:19.376Z,22.40
2018-07-04T06:35:06.281Z,22.20
2018-07-04T06:37:41.933Z,22.60
2018-07-04T06:40:10.925Z,22.90
2018-07-04T06:42:39.296Z,23.30
2018-07-04T06:45:07.534Z,23.50
2018-07-04T06:47:37.340Z,23.20
2018-07-04T06:50:06.199Z,23.10
2018-07-04T06:52:34.445Z,23.00
2018-07-04T06:55:02.991Z,23.30
2018-07-04T06:57:31.398Z,23.70
2018-07-04T07:02:33.148Z,23.70
2018-07-04T07:05:13.767Z,24.00
2018-07-04T07:08:00.646Z,24.30
2018-07-04T07:10:47.280Z,24.10
2018-07-04T07:16:14.988Z,23.70
2018-07-04T07:19:01.716Z,24.30
2018-07-04T07:21:48.490Z,24.50
2018-07-04T07:24:35.629Z,24.50
2018-07-04T07:27:22.155Z,24.10
2018-07-04T07:30:09.113Z,24.30
2018-07-04T07:32:55.923Z,24.10
2018-07-04T07:35:42.983Z,23.90
2018-07-04T07:38:29.738Z,24.10
2018-07-04T07:41:16.469Z,24.10
2018-07-04T07:44:03.106Z,24.40
2018-07-04T07:46:49.702Z,24.40
2018-07-04T07:49:36.509Z,24.30
2018-07-04T07:52:23.251Z,24.70
2018-07-04T07:57:50.612Z,24.90
2018-07-04T08:00:37.605Z,25.00
2018-07-04T08:03:24.588Z,25.00
2018-07-04T08:06:11.536Z,25.40
2018-07-04T08:08:58.346Z,24.90
2018-07-04T08:11:45.219Z,25.00
2018-07-04T08:17:12.875Z,25.50
2018-07-04T08:19:59.832Z,25.60
2018-07-04T08:22:46.831Z,25.40
2018-07-04T08:25:33.622Z,25.60
2018-07-04T08:28:20.650Z,25.80
2018-07-04T08:31:07.282Z,26.30
2018-07-04T08:36:46.156Z,26.60
2018-07-04T08:39:32.901Z,26.30
2018-07-04T08:42:19.576Z,26.60
2018-07-04T08:45:06.377Z,26.90
2018-07-04T08:47:53.100Z,27.30
2018-07-04T08:53:20.567Z,27.20
2018-07-04T08:56:07.781Z,27.20
2018-07-04T08:58:54.705Z,27.00
2018-07-04T09:01:41.721Z,27.40
2018-07-04T09:04:28.729Z,27.60
2018-07-04T09:07:16.394Z,27.60
2018-07-04T09:10:03.250Z,27.70
2018-07-04T09:15:30.903Z,27.90
2018-07-04T09:18:17.927Z,28.10
2018-07-04T09:21:04.637Z,28.40
2018-07-04T09:23:51.349Z,28.40
2018-07-04T09:26:38.141Z,28.00
2018-07-04T09:29:24.798Z,28.10
2018-07-04T09:32:11.430Z,28.60
2018-07-04T09:34:58.847Z,28.70
2018-07-04T09:37:45.647Z,28.60
2018-07-04T09:40:32.387Z,28.50
2018-07-04T09:43:19.130Z,28.40
2018-07-04T09:46:06.122Z,28.40
2018-07-04T09:52:03.911Z,28.70
2018-07-04T09:54:50.652Z,28.90
2018-07-04T09:57:37.505Z,28.90
2018-07-04T10:00:29.447Z,28.90
2018-07-04T10:03:16.196Z,29.20
2018-07-04T10:06:02.766Z,29.50
2018-07-04T10:08:49.637Z,29.50
2018-07-04T10:11:36.493Z,29.50
2018-07-04T10:14:23.402Z,29.50
2018-07-04T10:17:10.181Z,29.50
2018-07-04T10:19:57.020Z,29.60
2018-07-04T10:22:43.925Z,29.90
2018-07-04T10:25:30.814Z,29.70
2018-07-04T10:28:17.601Z,29.60
2018-07-04T10:31:04.505Z,29.30
2018-07-04T10:33:51.450Z,28.70
2018-07-04T10:36:38.219Z,28.90
2018-07-04T10:45:13.667Z,29.20
2018-07-04T10:48:00.626Z,28.70
2018-07-04T10:50:47.581Z,28.70
2018-07-04T10:53:34.320Z,29.50
2018-07-04T10:56:20.878Z,29.30
2018-07-04T10:59:07.943Z,29.50
2018-07-04T11:04:35.334Z,29.80
2018-07-04T11:10:02.770Z,30.30
2018-07-04T11:12:49.793Z,30.40
2018-07-04T11:15:36.692Z,30.00
2018-07-04T11:21:04.301Z,30.70
2018-07-04T11:23:51.111Z,30.90
2018-07-04T11:26:37.747Z,30.10
2018-07-04T11:29:24.693Z,29.80
2018-07-04T11:32:11.436Z,29.10
2018-07-04T11:37:39.969Z,29.50
2018-07-04T11:40:26.790Z,29.70
2018-07-04T11:43:13.569Z,29.90
2018-07-04T11:45:54.810Z,29.40
2018-07-04T11:48:23.337Z,29.30
2018-07-04T11:50:52.780Z,29.70
2018-07-04T11:53:21.023Z,30.30
2018-07-04T11:55:49.491Z,30.30
2018-07-04T11:58:18.076Z,29.50
2018-07-04T12:03:18.733Z,29.50
2018-07-04T12:06:00.941Z,29.40
2018-07-04T12:08:35.411Z,29.70
2018-07-04T12:11:03.658Z,29.60
2018-07-04T12:13:32.183Z,29.50
2018-07-04T12:16:00.416Z,29.40
2018-07-04T12:18:28.624Z,29.50
2018-07-04T12:20:56.867Z,29.10
2018-07-04T12:23:25.021Z,29.50
2018-07-04T12:25:54.264Z,29.70
2018-07-04T12:28:22.723Z,29.80
2018-07-04T12:30:50.949Z,29.70
2018-07-04T12:33:19.226Z,30.10
2018-07-04T12:35:47.410Z,30.20
2018-07-04T12:38:15.609Z,30.10
2018-07-04T12:40:43.949Z,30.00
2018-07-04T12:43:12.208Z,29.50
2018-07-04T12:45:40.459Z,29.70
2018-07-04T12:48:08.697Z,30.10
2018-07-04T12:50:36.852Z,30.10
2018-07-04T12:53:05.117Z,30.30
2018-07-04T12:55:45.804Z,30.10
2018-07-04T12:58:32.746Z,29.70
2018-07-04T13:07:02.956Z,30.10
2018-07-04T13:09:49.780Z,30.30
2018-07-04T13:12:36.715Z,29.60
2018-07-04T13:15:23.671Z,29.80
2018-07-04T13:18:10.362Z,30.10
2018-07-04T13:26:24.241Z,29.50
2018-07-04T13:29:10.998Z,30.00
2018-07-04T13:31:58.049Z,30.10
2018-07-04T13:34:44.729Z,30.00
2018-07-04T13:37:31.629Z,29.80
2018-07-04T13:40:19.235Z,30.40
2018-07-04T13:43:06.142Z,30.70
2018-07-04T13:45:53.069Z,30.60
2018-07-04T13:48:39.927Z,30.60
2018-07-04T13:51:26.555Z,30.30
2018-07-04T13:54:13.492Z,30.80
2018-07-04T13:59:41.111Z,30.40
2018-07-04T14:02:27.954Z,30.50
2018-07-04T14:05:14.791Z,30.50
2018-07-04T14:08:01.738Z,30.60
2018-07-04T14:13:41.075Z,30.70
2018-07-04T14:16:28.110Z,30.20
2018-07-04T14:21:55.726Z,30.20
2018-07-04T14:24:42.458Z,29.70
2018-07-04T14:27:29.259Z,29.20
2018-07-04T14:32:56.847Z,30.20
2018-07-04T14:35:43.422Z,30.60
2018-07-04T14:38:30.296Z,30.70
2018-07-04T14:41:17.721Z,30.60
2018-07-04T14:44:04.333Z,30.70
2018-07-04T14:46:58.769Z,30.80
2018-07-04T14:49:45.568Z,30.50
2018-07-04T14:52:32.182Z,30.60
2018-07-04T14:55:19.037Z,30.50
2018-07-04T14:58:05.860Z,30.70
2018-07-04T15:03:33.751Z,30.90
2018-07-04T15:06:20.418Z,30.70
2018-07-04T15:12:03.062Z,31.30
2018-07-04T15:14:49.780Z,31.40
2018-07-04T15:17:36.796Z,31.60
2018-07-04T15:20:23.641Z,31.40
2018-07-04T15:23:10.497Z,31.50
2018-07-04T15:25:57.237Z,31.20
2018-07-04T15:28:43.771Z,31.30
2018-07-04T15:31:30.553Z,31.50
2018-07-04T15:34:17.465Z,30.90
2018-07-04T15:37:04.658Z,31.10
2018-07-04T15:42:44.408Z,30.70
2018-07-04T15:45:31.218Z,30.90
2018-07-04T15:51:12.314Z,31.20
2018-07-04T15:53:58.926Z,31.00
2018-07-04T15:56:45.753Z,30.60
2018-07-04T15:59:32.861Z,31.00
2018-07-04T16:02:19.496Z,30.70
2018-07-04T16:05:06.648Z,30.30
2018-07-04T16:07:53.432Z,30.60
2018-07-04T16:10:40.208Z,30.40
2018-07-04T16:13:26.896Z,31.00
2018-07-04T16:16:13.688Z,31.10
2018-07-04T16:19:00.665Z,31.20
2018-07-04T16:21:47.613Z,31.00
2018-07-04T16:24:34.447Z,30.50
2018-07-04T16:27:21.274Z,30.40
2018-07-04T16:33:00.630Z,30.20
2018-07-04T16:38:40.603Z,30.40
2018-07-04T16:41:33.773Z,30.40
2018-07-04T16:44:20.917Z,30.20
2018-07-04T16:47:08.289Z,30.70
2018-07-04T16:52:47.945Z,30.00
2018-07-04T16:55:35.620Z,29.30
2018-07-04T16:58:23.359Z,29.40
2018-07-04T17:01:10.837Z,29.70
2018-07-04T17:03:57.764Z,29.90
2018-07-04T17:06:44.558Z,29.80
2018-07-04T17:09:31.272Z,29.70
2018-07-04T17:12:18.333Z,29.80
2018-07-04T17:15:05.816Z,30.30
2018-07-04T17:17:52.766Z,31.00
2018-07-04T17:20:40.224Z,30.70
2018-07-04T17:23:26.955Z,30.50
2018-07-04T17:26:18.674Z,30.90
2018-07-04T17:29:05.656Z,30.90
2018-07-04T17:31:52.465Z,30.60
2018-07-04T17:34:39.327Z,29.50
2018-07-04T17:37:26.082Z,28.80
2018-07-04T17:40:12.924Z,28.50
2018-07-04T17:42:59.629Z,27.70
2018-07-04T17:45:46.425Z,27.80
2018-07-04T17:48:33.303Z,27.80
2018-07-04T17:51:21.129Z,27.80
2018-07-04T17:54:08.369Z,27.60
2018-07-04T17:56:55.366Z,27.50
2018-07-04T17:59:42.078Z,27.60
2018-07-04T18:02:28.985Z,27.50
2018-07-04T18:05:16.031Z,27.70
2018-07-04T18:08:03.502Z,27.50
2018-07-04T18:10:50.457Z,27.50
2018-07-04T18:13:37.277Z,27.20
2018-07-04T18:16:24.243Z,27.20
2018-07-04T18:19:11.398Z,27.00
2018-07-04T18:24:50.227Z,26.80
2018-07-04T18:27:37.172Z,27.00
2018-07-04T18:30:23.914Z,27.00
2018-07-04T18:35:51.825Z,27.30
2018-07-04T18:38:38.721Z,27.10
2018-07-04T18:41:27.162Z,27.20
2018-07-04T18:44:15.355Z,27.10
2018-07-04T18:47:02.054Z,27.00
2018-07-04T18:49:49.217Z,27.00
2018-07-04T18:52:36.027Z,27.00
2018-07-04T18:55:22.794Z,26.90
2018-07-04T18:58:09.737Z,26.80
2018-07-04T19:00:56.445Z,26.70
2018-07-04T19:03:43.340Z,26.40
2018-07-04T19:06:30.018Z,26.50
2018-07-04T19:09:16.711Z,26.10
2018-07-04T19:12:03.592Z,26.10
2018-07-04T19:14:50.620Z,26.20
2018-07-04T19:17:39.359Z,25.90
2018-07-04T19:20:26.145Z,25.70
2018-07-04T19:23:13.070Z,25.60
2018-07-04T19:25:59.981Z,25.50
2018-07-04T19:28:46.912Z,25.30
2018-07-04T19:31:33.543Z,25.30
2018-07-04T19:34:21.186Z,25.20
2018-07-04T19:37:08.490Z,25.30
2018-07-04T19:39:55.452Z,25.30
2018-07-04T19:42:43.293Z,25.00
2018-07-04T19:45:30.300Z,24.80
2018-07-04T19:50:57.942Z,24.60
2018-07-04T19:53:44.679Z,24.60
2018-07-04T19:56:31.632Z,24.60
2018-07-04T19:59:18.499Z,24.60
2018-07-04T20:02:05.378Z,24.60
2018-07-04T20:04:52.149Z,24.60
2018-07-04T20:07:39.030Z,24.50
2018-07-04T20:10:25.692Z,24.50
2018-07-04T20:13:12.525Z,24.50
2018-07-04T20:15:59.642Z,24.50
2018-07-04T20:18:46.468Z,24.30
2018-07-04T20:21:33.381Z,24.20
2018-07-04T20:24:20.276Z,24.10
2018-07-04T20:27:07.203Z,24.10
2018-07-04T20:29:53.851Z,24.10
2018-07-04T20:35:33.271Z,24.30
2018-07-04T20:43:41.256Z,24.10
2018-07-04T20:46:28.434Z,24.00
2018-07-04T20:49:15.380Z,23.70
2018-07-04T20:52:02.197Z,23.90
2018-07-04T20:54:48.997Z,23.90
2018-07-04T20:57:35.757Z,23.90
2018-07-04T21:00:22.489Z,23.70
2018-07-04T21:03:10.230Z,23.60
2018-07-04T21:05:57.381Z,23.40
2018-07-04T21:08:44.295Z,23.20
2018-07-04T21:11:31.087Z,23.10
2018-07-04T21:14:17.941Z,23.10
2018-07-04T21:17:04.785Z,23.10
2018-07-04T21:19:51.523Z,23.20
2018-07-04T21:22:38.263Z,23.50
2018-07-04T21:25:25.750Z,23.30
2018-07-04T21:28:12.466Z,23.10
2018-07-04T21:30:59.326Z,23.20
2018-07-04T21:33:46.086Z,23.30
2018-07-04T21:36:32.948Z,23.40
2018-07-04T21:39:19.467Z,23.40
2018-07-04T21:42:06.601Z,23.20
2018-07-04T21:44:53.522Z,23.30
2018-07-04T21:47:40.188Z,23.20
2018-07-04T21:50:27.827Z,23.20
2018-07-04T21:53:14.703Z,23.10
2018-07-04T21:56:01.540Z,22.70
2018-07-04T21:58:48.178Z,22.70
2018-07-04T22:01:34.933Z,23.00
2018-07-04T22:04:21.933Z,23.10
2018-07-04T22:07:08.854Z,23.00
2018-07-04T22:09:56.377Z,23.00
2018-07-04T22:12:43.231Z,22.90
2018-07-04T22:18:22.600Z,22.60
2018-07-04T22:21:09.274Z,22.70
2018-07-04T22:23:56.379Z,22.50
2018-07-04T22:26:43.308Z,22.50
2018-07-04T22:29:30.267Z,22.10
2018-07-04T22:32:17.148Z,22.30
2018-07-04T22:37:44.860Z,22.10
2018-07-04T22:40:31.840Z,22.20
2018-07-04T22:43:18.690Z,22.10
2018-07-04T22:48:46.317Z,22.20
2018-07-04T22:54:26.640Z,21.90
2018-07-04T22:57:13.685Z,22.00
2018-07-04T23:00:01.137Z,22.00
2018-07-04T23:02:47.937Z,22.00
2018-07-04T23:05:34.828Z,22.10
2018-07-04T23:08:21.625Z,21.70
2018-07-04T23:11:08.714Z,21.60
2018-07-04T23:13:56.675Z,21.70
2018-07-04T23:16:43.623Z,21.60
2018-07-04T23:19:30.533Z,21.40
2018-07-04T23:22:17.325Z,21.40
2018-07-04T23:27:44.816Z,21.40
2018-07-04T23:30:31.480Z,21.10
2018-07-04T23:33:18.277Z,21.10
2018-07-04T23:36:05.031Z,21.20
2018-07-04T23:38:51.959Z,21.20
2018-07-04T23:41:38.718Z,21.30
2018-07-04T23:44:25.779Z,21.40
2018-07-04T23:47:12.643Z,21.40
2018-07-04T23:49:59.803Z,21.40
2018-07-04T23:52:46.928Z,21.40
2018-07-04T23:55:33.917Z,21.30
2018-07-04T23:58:20.804Z,21.40
